Latest Weather Observations for Redcliffe

IDQ60801

Issued at 6:35 pm EST Saturday 18 April 2015 (issued every 30 minutes, with the page automatically refreshed every 10 minutes)

About weather observations | Map of weather stations | Latest weather observations for QLD | Other Formats
Station Details ID: 040958 Name: REDCLIFFE Lat: -27.22 Lon: 153.09 Height: 12.6 m
Data from the previous 72 hours. | See also: Recent months at Redcliffe
Date/Time
EST
Temp
°C
App
Temp
°C
Dew
Point
Rel
Hum
%
Delta-T
°C
Wind Press
QNH
hPa
Press
MSL
hPa
Rain
since 9 am
mm
Dir
 
Spd
km/h
Gust
km/h
Spd
kts
Gust
kts
18/06:30pm 24.0 22.4 19.3 75 3.0 NE 26 30 14 16 1019.6 1019.5 0.0
18/06:00pm 24.2 22.9 18.2 69 3.8 NE 22 26 12 14 1019.5 1019.4 0.0
18/05:30pm 24.3 23.0 18.2 68 3.8 NE 22 28 12 15 1019.3 1019.2 0.0
18/05:00pm 24.6 23.1 17.8 66 4.2 NE 22 26 12 14 1019.4 1019.3 0.0
18/04:30pm 25.1 23.6 17.8 64 4.6 NE 22 26 12 14 1019.3 1019.2 0.0
18/04:00pm 25.0 23.0 17.5 63 4.7 NE 24 28 13 15 1019.1 1019.0 0.0
18/03:30pm 25.3 23.2 17.2 61 5.0 NE 24 28 13 15 1019.0 1018.9 0.0
18/03:00pm 26.0 24.5 17.6 60 5.3 NE 22 26 12 14 1019.0 1018.9 0.0
18/02:30pm 26.1 25.1 18.0 61 5.1 NE 20 24 11 13 1019.0 1018.9 0.0
18/02:00pm 26.8 25.6 17.6 57 5.8 NE 20 26 11 14 1019.1 1019.0 0.0
18/01:30pm 26.7 25.7 18.0 59 5.5 NE 20 26 11 14 1019.3 1019.2 0.0
18/01:00pm 26.7 26.0 18.3 60 5.3 NE 19 24 10 13 1019.8 1019.7 0.0
18/12:30pm 26.6 25.7 18.2 60 5.3 NE 20 24 11 13 1020.3 1020.2 0.0
18/12:00pm 25.9 24.5 17.0 58 5.5 NE 20 26 11 14 1020.9 1020.8 0.0
18/11:30am 25.9 24.7 17.5 59 5.2 NE 20 26 11 14 1021.4 1021.3 0.0
18/11:00am 26.6 25.9 18.2 60 5.3 NE 19 24 10 13 1021.8 1021.7 0.0
18/10:30am 26.1 24.8 16.9 57 5.7 NE 19 24 10 13 1022.3 1022.2 0.0
18/10:00am 25.7 24.3 17.1 59 5.3 ENE 20 24 11 13 1022.4 1022.3 0.0
18/09:30am 26.0 25.5 17.9 61 5.1 NE 17 20 9 11 1022.8 1022.7 0.0
18/09:00am 25.5 24.8 18.2 64 4.6 ENE 19 22 10 12 1022.6 1022.5 0.0
18/08:30am 25.5 24.0 16.4 57 5.6 NE 19 22 10 12 1022.6 1022.5 0.0
18/08:00am 25.3 24.3 17.5 62 4.9 ENE 19 22 10 12 1022.3 1022.2 0.0
18/07:30am 24.7 23.6 17.4 64 4.5 ENE 19 22 10 12 1022.1 1022.0 0.0
18/07:00am 23.9 22.5 16.9 65 4.3 ENE 20 24 11 13 1021.8 1021.7 0.0
18/06:30am 23.3 21.9 17.1 68 3.8 ENE 20 24 11 13 1021.5 1021.4 0.0
18/06:00am 23.2 21.4 17.0 68 3.8 ENE 22 26 12 14 1021.2 1021.1 0.0
18/05:30am 23.2 21.4 17.0 68 3.8 ENE 22 26 12 14 1021.1 1021.0 0.0
18/05:00am 23.1 20.9 16.9 68 3.8 ENE 24 28 13 15 1021.0 1020.9 0.0
18/04:30am 23.3 21.1 15.9 63 4.5 E 22 32 12 17 1020.9 1020.8 0.0
18/04:00am 22.7 21.9 17.2 71 3.4 ENE 17 20 9 11 1021.0 1020.9 0.0
18/03:30am 23.1 21.6 17.6 71 3.4 E 22 28 12 15 1021.1 1021.0 0.0
18/03:00am 22.5 21.4 17.4 73 3.1 ENE 19 26 10 14 1021.2 1021.1 0.0
18/02:30am 21.0 19.8 17.6 81 2.1 NE 20 32 11 17 1021.5 1021.4 0.0
18/02:00am 21.4 21.6 17.6 79 2.3 ESE 13 15 7 8 1021.8 1021.7 0.0
18/01:30am 21.0 21.0 17.2 79 2.3 ESE 13 15 7 8 1021.9 1021.8 0.0
18/01:00am 21.3 21.3 17.3 78 2.4 ESE 13 15 7 8 1022.0 1021.9 0.0
18/12:30am 22.0 21.8 17.6 76 2.7 ESE 15 17 8 9 1022.2 1022.1 0.0
 
Date/Time
EST
Temp
°C
App
Temp
°C
Dew
Point
Rel
Hum
%
Delta-T
°C
Wind Press
QNH
hPa
Press
MSL
hPa
Rain
since 9 am
mm
Dir
 
Spd
km/h
Gust
km/h
Spd
kts
Gust
kts
17/11:30pm 22.6 21.0 17.5 73 3.2 ESE 22 28 12 15 1022.7 1022.6 0.0
17/11:00pm 22.7 22.0 16.5 68 3.8 ESE 15 19 8 10 1022.8 1022.7 0.0
17/10:30pm 21.9 18.2 17.5 76 2.7 ENE 33 39 18 21 1022.7 1022.6 0.0
17/10:20pm 22.2 21.3 16.9 72 3.2 E 17 37 9 20 1022.8 1022.7 0.0
17/10:00pm 21.8 24.2 17.0 74 2.9 CALM 0 0 0 0 1022.8 1022.7 0.0
17/09:30pm 21.2 23.4 16.6 75 2.8 CALM 0 0 0 0 1022.8 1022.7 0.0
17/09:00pm 22.4 18.6 16.7 70 3.5 ENE 32 41 17 22 1023.0 1022.9 0.0
17/08:30pm 22.8 20.2 17.9 74 3.1 ENE 28 37 15 20 1022.6 1022.5 0.0
17/08:00pm 22.9 21.7 17.1 70 3.6 E 19 20 10 11 1022.6 1022.5 0.0
17/07:30pm 23.2 22.4 17.0 68 3.8 E 17 19 9 10 1022.3 1022.2 0.0
17/07:00pm 23.3 21.7 16.1 64 4.4 E 19 20 10 11 1022.0 1021.9 0.0
17/06:30pm 23.3 21.7 16.1 64 4.4 E 19 20 10 11 1021.8 1021.7 0.0
17/06:00pm 23.6 21.8 15.9 62 4.6 E 20 26 11 14 1021.4 1021.3 0.0
17/05:30pm 23.8 21.5 15.8 61 4.8 E 22 26 12 14 1021.2 1021.1 0.0
17/05:00pm 24.2 22.1 16.2 61 4.9 E 22 26 12 14 1021.0 1020.9 0.0
17/04:30pm 24.5 22.9 16.0 59 5.2 E 19 20 10 11 1020.9 1020.8 0.0
17/04:00pm 24.4 22.6 15.9 59 5.1 E 20 26 11 14 1020.6 1020.5 0.0
17/03:30pm 25.2 23.5 16.3 57 5.5 E 20 26 11 14 1020.6 1020.5 0.0
17/03:00pm 25.2 25.3 16.6 59 5.3 ENE 11 17 6 9 1020.7 1020.6 0.0
17/02:30pm 25.6 26.9 17.5 61 5.1 ENE 7 9 4 5 1020.7 1020.6 0.0
17/02:00pm 25.4 26.4 16.8 59 5.3 ESE 7 9 4 5 1020.8 1020.7 0.0
17/01:30pm 25.9 26.8 17.5 59 5.3 SE 9 11 5 6 1021.1 1021.0 0.0
17/01:00pm 25.3 25.7 16.4 57 5.5 SE 9 11 5 6 1021.3 1021.2 0.0
17/12:30pm 26.3 27.2 17.6 58 5.5 SSE 9 11 5 6 1021.9 1021.8 0.0
17/12:00pm 25.2 25.5 16.9 60 5.1 SSE 11 11 6 6 1022.5 1022.4 0.0
17/11:30am 25.5 25.9 17.2 60 5.2 SSE 11 11 6 6 1023.0 1022.9 0.0
17/11:00am 25.5 25.6 17.4 61 5.0 SSE 13 15 7 8 1023.3 1023.2 0.0
17/10:30am 25.3 26.1 18.2 64 4.5 SSE 11 13 6 7 1023.6 1023.5 0.0
17/10:00am 24.9 25.0 17.4 63 4.7 S 13 15 7 8 1024.0 1023.9 0.0
17/09:30am 24.7 24.5 17.7 65 4.4 S 15 17 8 9 1024.3 1024.2 0.0
17/09:00am 23.2 23.1 17.9 72 3.3 S 15 19 8 10 1024.4 1024.3 0.0
17/08:30am 22.1 22.7 18.5 80 2.3 SSW 13 17 7 9 1024.6 1024.5 0.0
17/08:00am 20.6 20.1 17.0 80 2.2 SSW 15 20 8 11 1024.4 1024.3 0.0
17/07:30am 19.6 19.4 16.8 84 1.7 SW 13 17 7 9 1024.0 1023.9 0.0
17/07:00am 18.5 18.8 15.9 85 1.5 SW 9 13 5 7 1023.6 1023.5 0.0
17/06:30am 17.6 17.7 15.6 88 1.2 WSW 9 13 5 7 1023.3 1023.2 0.0
17/06:00am 17.7 18.2 15.5 87 1.3 WSW 7 9 4 5 1023.1 1023.0 0.0
17/05:30am 18.1 17.7 16.1 88 1.2 SSW 13 15 7 8 1023.0 1022.9 0.0
17/05:00am 18.0 17.2 16.0 88 1.2 SSW 15 19 8 10 1023.0 1022.9 0.0
17/04:30am 18.0 17.5 16.0 88 1.2 SW 13 15 7 8 1022.6 1022.5 0.0
17/04:00am 18.1 18.0 16.1 88 1.2 SSW 11 15 6 8 1022.4 1022.3 0.0
17/03:30am 18.2 17.8 16.2 88 1.2 SW 13 17 7 9 1022.4 1022.3 0.0
17/03:00am 18.3 18.2 16.1 87 1.3 SW 11 13 6 7 1022.3 1022.2 0.0
17/02:30am 18.4 18.0 16.2 87 1.3 SW 13 15 7 8 1022.5 1022.4 0.0
17/02:00am 18.5 18.2 16.5 88 1.2 WSW 13 17 7 9 1022.7 1022.6 0.0
17/01:30am 18.5 18.6 16.5 88 1.2 WSW 11 13 6 7 1022.9 1022.8 0.0
17/01:00am 18.4 18.0 16.2 87 1.3 WSW 13 15 7 8 1023.1 1023.0 0.0
17/12:30am 18.8 19.3 16.6 87 1.3 E 9 13 5 7 1023.5 1023.4 0.0
17/12:00am 19.3 18.8 16.9 86 1.4 E 15 17 8 9 1023.8 1023.7 0.0
 
Date/Time
EST
Temp
°C
App
Temp
°C
Dew
Point
Rel
Hum
%
Delta-T
°C
Wind Press
QNH
hPa
Press
MSL
hPa
Rain
since 9 am
mm
Dir
 
Spd
km/h
Gust
km/h
Spd
kts
Gust
kts
16/11:30pm 19.6 19.1 16.8 84 1.7 E 15 17 8 9 1023.8 1023.7 0.0
16/11:00pm 19.9 18.9 16.5 81 2.0 ENE 17 19 9 10 1023.9 1023.8 0.0
16/10:30pm 20.7 20.1 16.7 78 2.4 ENE 15 17 8 9 1024.1 1024.0 0.0
16/10:00pm 22.4 22.4 17.3 73 3.1 ENE 13 15 7 8 1024.2 1024.1 0.0
16/09:30pm 22.4 22.2 17.5 74 3.0 ENE 15 17 8 9 1024.2 1024.1 0.0
16/09:00pm 22.3 22.0 17.4 74 3.0 ESE 15 17 8 9 1024.1 1024.0 0.0
16/08:30pm 22.4 22.4 17.1 72 3.3 ESE 13 15 7 8 1024.1 1024.0 0.0
16/08:00pm 22.5 22.3 16.8 70 3.5 ESE 13 15 7 8 1024.1 1024.0 0.0
16/07:30pm 22.8 22.3 16.8 69 3.7 ESE 15 17 8 9 1024.0 1023.9 0.0
16/07:00pm 22.8 21.7 16.4 67 3.9 E 17 19 9 10 1023.7 1023.6 0.0
16/06:30pm 22.9 21.7 16.0 65 4.2 E 17 20 9 11 1023.2 1023.1 0.0
16/06:00pm 22.9 22.1 16.0 65 4.2 E 15 17 8 9 1023.0 1022.9 0.0
16/05:30pm 23.2 22.5 15.5 62 4.6 E 13 15 7 8 1022.7 1022.6 0.0
16/05:00pm 23.8 22.7 15.3 59 5.1 E 15 17 8 9 1022.5 1022.4 0.0
16/04:30pm 24.2 23.0 15.1 56 5.4 E 15 19 8 10 1022.5 1022.4 0.0
16/04:00pm 24.2 23.0 15.1 56 5.4 E 15 19 8 10 1022.6 1022.5 0.0
16/03:30pm 24.4 23.4 15.6 58 5.3 E 15 17 8 9 1022.5 1022.4 0.0
16/03:00pm 24.4 23.5 15.9 59 5.1 E 15 17 8 9 1022.6 1022.5 0.0
16/02:30pm 24.9 24.2 15.5 56 5.7 ESE 13 15 7 8 1022.9 1022.8 0.0
16/02:00pm 24.7 24.8 15.6 57 5.5 ESE 9 13 5 7 1022.8 1022.7 0.0
16/01:30pm 25.5 25.8 16.1 56 5.7 ESE 9 13 5 7 1023.0 1022.9 0.0
16/01:00pm 25.0 24.6 15.3 55 5.8 SE 11 13 6 7 1023.2 1023.1 0.0
16/12:30pm 24.8 24.8 15.1 54 5.8 SE 9 11 5 6 1023.6 1023.5 0.0
16/12:00pm 25.4 25.8 16.3 57 5.6 SE 9 11 5 6 1024.2 1024.1 0.0
16/11:30am 25.2 24.8 16.3 57 5.5 SSE 13 15 7 8 1024.8 1024.7 0.0
16/11:00am 24.9 24.1 15.2 54 5.8 S 13 15 7 8 1025.3 1025.2 0.0
16/10:30am 24.9 24.5 16.1 58 5.4 S 13 17 7 9 1025.8 1025.7 0.0
16/10:00am 25.0 24.4 17.5 63 4.7 S 17 20 9 11 1026.0 1025.9 0.0
16/09:30am 24.1 23.4 16.4 62 4.7 S 15 20 8 11 1026.1 1026.0 0.0
16/09:00am 23.8 23.2 16.6 64 4.4 S 15 20 8 11 1026.2 1026.1 0.0
16/08:30am 22.3 21.6 16.3 69 3.6 SSW 15 20 8 11 1026.2 1026.1 0.0
16/08:00am 21.2 20.2 15.7 71 3.3 SSW 15 19 8 10 1025.9 1025.8 0.0
16/07:30am 20.0 19.2 15.2 74 2.8 SW 13 17 7 9 1025.5 1025.4 0.0
16/07:00am 18.8 18.1 15.3 80 2.0 SSW 13 17 7 9 1025.3 1025.2 0.0
16/06:30am 17.7 16.4 14.8 83 1.7 SW 15 19 8 10 1025.1 1025.0 0.0
16/06:00am 17.5 16.2 14.8 84 1.6 SW 15 20 8 11 1024.9 1024.8 0.0
16/05:30am 17.5 16.6 14.8 84 1.6 SW 13 17 7 9 1024.8 1024.7 0.0
16/05:00am 17.5 16.6 14.8 84 1.6 SW 13 17 7 9 1024.6 1024.5 0.0
16/04:30am 17.5 16.6 14.8 84 1.6 SW 13 17 7 9 1024.5 1024.4 0.0
16/04:00am 17.6 16.7 14.9 84 1.6 SW 13 15 7 8 1024.2 1024.1 0.0
16/03:30am 17.7 17.2 15.0 84 1.6 SW 11 13 6 7 1024.0 1023.9 0.0
16/03:00am 18.0 17.6 15.3 84 1.6 SW 11 15 6 8 1024.0 1023.9 0.0
16/02:30am 18.2 17.5 15.3 83 1.7 SW 13 17 7 9 1024.2 1024.1 0.0
16/02:00am 18.3 17.6 15.4 83 1.7 SW 13 15 7 8 1024.5 1024.4 0.0
16/01:30am 18.5 17.9 15.6 83 1.7 SW 13 13 7 7 1024.7 1024.6 0.0
16/01:00am 18.6 18.0 15.7 83 1.7 SW 13 15 7 8 1025.0 1024.9 0.0
16/12:30am 18.7 17.8 15.8 83 1.7 WSW 15 17 8 9 1025.2 1025.1 0.0
16/12:00am 19.0 18.1 15.9 82 1.8 SW 15 17 8 9 1025.4 1025.3 0.0
 
Date/Time
EST
Temp
°C
App
Temp
°C
Dew
Point
Rel
Hum
%
Delta-T
°C
Wind Press
QNH
hPa
Press
MSL
hPa
Rain
since 9 am
mm
Dir
 
Spd
km/h
Gust
km/h
Spd
kts
Gust
kts
15/11:30pm 19.4 18.8 15.7 79 2.2 SW 13 17 7 9 1025.5 1025.4 0.0
15/11:00pm 19.4 18.7 15.5 78 2.3 SE 13 15 7 8 1025.5 1025.4 0.0
15/10:30pm 20.0 19.7 15.4 75 2.7 ESE 11 15 6 8 1025.6 1025.5 0.0
15/10:00pm 21.1 20.1 15.6 71 3.3 ESE 15 17 8 9 1025.5 1025.4 0.0
15/09:30pm 22.0 21.0 15.6 67 3.8 ESE 15 19 8 10 1025.5 1025.4 0.0
15/09:00pm 22.2 21.3 15.8 67 3.8 ESE 15 17 8 9 1025.4 1025.3 0.0
15/08:30pm 22.3 20.8 15.4 65 4.1 ESE 17 19 9 10 1025.4 1025.3 0.0
15/08:00pm 22.5 21.4 15.4 64 4.2 SE 15 20 8 11 1025.2 1025.1 0.0
15/07:30pm 22.6 21.0 15.0 62 4.5 SE 17 19 9 10 1024.9 1024.8 0.0
15/07:00pm 22.9 21.2 14.7 60 4.8 ESE 17 19 9 10 1024.8 1024.7 0.0

Other Formats:

Comma delimited format used in spreadsheet applications
http://www.bom.gov.au/fwo/IDQ60801/IDQ60801.95591.axf

JavaScript Object Notation format (JSON) in row-major order
http://www.bom.gov.au/fwo/IDQ60801/IDQ60801.95591.json